sensor_id;sensor_type;location;lat;lon;timestamp;P1;durP1;ratioP1;P2;durP2;ratioP2
30247;SDS011;17063;50.892;4.702;2022-12-07T00:01:39;12.30;;;6.00;;
30247;SDS011;17063;50.892;4.702;2022-12-07T00:04:09;14.60;;;6.50;;
30247;SDS011;17063;50.892;4.702;2022-12-07T00:06:38;9.47;;;6.33;;
30247;SDS011;17063;50.892;4.702;2022-12-07T00:09:06;10.00;;;5.87;;
30247;SDS011;17063;50.892;4.702;2022-12-07T00:11:35;11.43;;;6.27;;
30247;SDS011;17063;50.892;4.702;2022-12-07T00:14:03;11.57;;;5.83;;
30247;SDS011;17063;50.892;4.702;2022-12-07T00:16:32;8.47;;;5.67;;
30247;SDS011;17063;50.892;4.702;2022-12-07T00:19:00;17.10;;;6.77;;
30247;SDS011;17063;50.892;4.702;2022-12-07T00:21:29;12.13;;;6.30;;
30247;SDS011;17063;50.892;4.702;2022-12-07T00:23:57;10.37;;;6.30;;
30247;SDS011;17063;50.892;4.702;2022-12-07T00:26:25;12.33;;;6.57;;
30247;SDS011;17063;50.892;4.702;2022-12-07T00:28:56;10.13;;;6.13;;
30247;SDS011;17063;50.892;4.702;2022-12-07T00:31:28;11.90;;;6.70;;
30247;SDS011;17063;50.892;4.702;2022-12-07T00:33:57;13.60;;;6.50;;
30247;SDS011;17063;50.892;4.702;2022-12-07T00:36:25;10.07;;;6.40;;
30247;SDS011;17063;50.892;4.702;2022-12-07T00:38:57;12.37;;;6.67;;
30247;SDS011;17063;50.892;4.702;2022-12-07T00:41:25;11.67;;;6.63;;
30247;SDS011;17063;50.892;4.702;2022-12-07T00:43:55;13.97;;;6.50;;
30247;SDS011;17063;50.892;4.702;2022-12-07T00:46:22;14.17;;;6.93;;
30247;SDS011;17063;50.892;4.702;2022-12-07T00:48:50;12.37;;;6.50;;
30247;SDS011;17063;50.892;4.702;2022-12-07T00:51:19;12.67;;;6.93;;
30247;SDS011;17063;50.892;4.702;2022-12-07T00:53:47;11.90;;;6.77;;
30247;SDS011;17063;50.892;4.702;2022-12-07T00:56:15;9.83;;;6.90;;
30247;SDS011;17063;50.892;4.702;2022-12-07T00:58:44;13.20;;;7.37;;
30247;SDS011;17063;50.892;4.702;2022-12-07T01:01:16;10.13;;;6.40;;
30247;SDS011;17063;50.892;4.702;2022-12-07T01:03:43;14.23;;;7.30;;
30247;SDS011;17063;50.892;4.702;2022-12-07T01:06:10;13.23;;;6.93;;
30247;SDS011;17063;50.892;4.702;2022-12-07T01:08:40;11.50;;;6.70;;
30247;SDS011;17063;50.892;4.702;2022-12-07T01:11:09;10.87;;;7.30;;
30247;SDS011;17063;50.892;4.702;2022-12-07T01:13:38;12.63;;;7.23;;
30247;SDS011;17063;50.892;4.702;2022-12-07T01:16:05;13.90;;;7.17;;
30247;SDS011;17063;50.892;4.702;2022-12-07T01:18:33;13.23;;;6.23;;
30247;SDS011;17063;50.892;4.702;2022-12-07T01:21:04;13.30;;;6.50;;
30247;SDS011;17063;50.892;4.702;2022-12-07T01:23:33;9.80;;;6.73;;
30247;SDS011;17063;50.892;4.702;2022-12-07T01:26:03;12.03;;;6.77;;
30247;SDS011;17063;50.892;4.702;2022-12-07T01:28:31;13.50;;;6.93;;
30247;SDS011;17063;50.892;4.702;2022-12-07T01:31:03;13.13;;;6.90;;
30247;SDS011;17063;50.892;4.702;2022-12-07T01:33:36;11.43;;;6.57;;
30247;SDS011;17063;50.892;4.702;2022-12-07T01:36:08;19.20;;;7.20;;
30247;SDS011;17063;50.892;4.702;2022-12-07T01:38:46;14.73;;;7.10;;
30247;SDS011;17063;50.892;4.702;2022-12-07T01:41:14;12.43;;;7.10;;
30247;SDS011;17063;50.892;4.702;2022-12-07T01:52:06;11.13;;;6.40;;
30247;SDS011;17063;50.892;4.702;2022-12-07T01:54:39;11.20;;;6.67;;
30247;SDS011;17063;50.892;4.702;2022-12-07T01:57:06;10.30;;;6.80;;
30247;SDS011;17063;50.892;4.702;2022-12-07T01:59:34;11.23;;;7.03;;
30247;SDS011;17063;50.892;4.702;2022-12-07T02:02:01;12.17;;;7.50;;
30247;SDS011;17063;50.892;4.702;2022-12-07T02:04:31;12.57;;;7.27;;
30247;SDS011;17063;50.892;4.702;2022-12-07T02:06:57;14.07;;;7.20;;
30247;SDS011;17063;50.892;4.702;2022-12-07T02:09:24;11.50;;;7.30;;
30247;SDS011;17063;50.892;4.702;2022-12-07T02:11:51;13.23;;;7.20;;
30247;SDS011;17063;50.892;4.702;2022-12-07T02:14:18;10.93;;;6.47;;
30247;SDS011;17063;50.892;4.702;2022-12-07T02:30:15;12.97;;;7.53;;
30247;SDS011;17063;50.892;4.702;2022-12-07T02:35:30;12.57;;;7.67;;
30247;SDS011;17063;50.892;4.702;2022-12-07T02:38:10;14.53;;;8.03;;
30247;SDS011;17063;50.892;4.702;2022-12-07T02:40:43;14.63;;;7.23;;
30247;SDS011;17063;50.892;4.702;2022-12-07T02:43:19;13.10;;;7.97;;
30247;SDS011;17063;50.892;4.702;2022-12-07T02:45:51;14.73;;;8.27;;
30247;SDS011;17063;50.892;4.702;2022-12-07T02:48:19;14.40;;;6.93;;
30247;SDS011;17063;50.892;4.702;2022-12-07T02:50:51;15.07;;;7.60;;
30247;SDS011;17063;50.892;4.702;2022-12-07T02:53:28;13.87;;;8.13;;
30247;SDS011;17063;50.892;4.702;2022-12-07T02:56:00;12.53;;;7.10;;
30247;SDS011;17063;50.892;4.702;2022-12-07T02:58:36;15.67;;;8.20;;
30247;SDS011;17063;50.892;4.702;2022-12-07T03:04:12;14.63;;;8.50;;
30247;SDS011;17063;50.892;4.702;2022-12-07T03:06:56;13.33;;;8.83;;
30247;SDS011;17063;50.892;4.702;2022-12-07T03:09:28;12.07;;;7.70;;
30247;SDS011;17063;50.892;4.702;2022-12-07T03:12:20;15.73;;;8.87;;
30247;SDS011;17063;50.892;4.702;2022-12-07T03:14:55;17.07;;;9.50;;
30247;SDS011;17063;50.892;4.702;2022-12-07T03:17:30;13.70;;;8.83;;
30247;SDS011;17063;50.892;4.702;2022-12-07T03:19:59;13.33;;;8.97;;
30247;SDS011;17063;50.892;4.702;2022-12-07T03:22:29;18.93;;;9.60;;
30247;SDS011;17063;50.892;4.702;2022-12-07T03:24:58;14.47;;;9.00;;
30247;SDS011;17063;50.892;4.702;2022-12-07T03:27:27;15.30;;;8.77;;
30247;SDS011;17063;50.892;4.702;2022-12-07T03:30:02;16.20;;;9.50;;
30247;SDS011;17063;50.892;4.702;2022-12-07T03:35:09;13.17;;;8.73;;
30247;SDS011;17063;50.892;4.702;2022-12-07T03:37:44;13.47;;;9.43;;
30247;SDS011;17063;50.892;4.702;2022-12-07T03:42:54;16.70;;;9.40;;
30247;SDS011;17063;50.892;4.702;2022-12-07T03:45:23;15.00;;;9.00;;
30247;SDS011;17063;50.892;4.702;2022-12-07T03:48:08;17.53;;;9.50;;
30247;SDS011;17063;50.892;4.702;2022-12-07T03:56:06;18.87;;;9.47;;
30247;SDS011;17063;50.892;4.702;2022-12-07T03:58:33;15.47;;;9.50;;
30247;SDS011;17063;50.892;4.702;2022-12-07T04:01:00;16.27;;;9.00;;
30247;SDS011;17063;50.892;4.702;2022-12-07T04:03:27;13.73;;;8.50;;
30247;SDS011;17063;50.892;4.702;2022-12-07T04:05:54;14.90;;;8.67;;
30247;SDS011;17063;50.892;4.702;2022-12-07T04:08:21;17.00;;;9.37;;
30247;SDS011;17063;50.892;4.702;2022-12-07T04:10:48;16.57;;;8.13;;
30247;SDS011;17063;50.892;4.702;2022-12-07T04:13:15;13.80;;;7.70;;
30247;SDS011;17063;50.892;4.702;2022-12-07T04:15:42;13.30;;;7.10;;
30247;SDS011;17063;50.892;4.702;2022-12-07T04:18:09;12.10;;;7.03;;
30247;SDS011;17063;50.892;4.702;2022-12-07T04:20:35;13.23;;;8.10;;
30247;SDS011;17063;50.892;4.702;2022-12-07T04:23:02;16.37;;;7.93;;
30247;SDS011;17063;50.892;4.702;2022-12-07T04:25:29;12.50;;;7.73;;
30247;SDS011;17063;50.892;4.702;2022-12-07T04:27:57;15.60;;;8.20;;
30247;SDS011;17063;50.892;4.702;2022-12-07T04:30:23;12.03;;;7.50;;
30247;SDS011;17063;50.892;4.702;2022-12-07T04:32:50;11.80;;;7.53;;
30247;SDS011;17063;50.892;4.702;2022-12-07T04:35:17;13.10;;;7.27;;
30247;SDS011;17063;50.892;4.702;2022-12-07T04:37:43;12.20;;;7.40;;
30247;SDS011;17063;50.892;4.702;2022-12-07T04:40:10;13.93;;;6.80;;
30247;SDS011;17063;50.892;4.702;2022-12-07T04:42:39;13.13;;;7.13;;
30247;SDS011;17063;50.892;4.702;2022-12-07T04:45:05;12.17;;;7.40;;
30247;SDS011;17063;50.892;4.702;2022-12-07T04:47:33;14.20;;;7.27;;
30247;SDS011;17063;50.892;4.702;2022-12-07T04:50:00;14.90;;;7.77;;
30247;SDS011;17063;50.892;4.702;2022-12-07T04:52:27;14.67;;;7.27;;
30247;SDS011;17063;50.892;4.702;2022-12-07T04:54:54;13.70;;;7.67;;
30247;SDS011;17063;50.892;4.702;2022-12-07T04:57:21;15.27;;;7.97;;
30247;SDS011;17063;50.892;4.702;2022-12-07T04:59:48;14.73;;;8.50;;
30247;SDS011;17063;50.892;4.702;2022-12-07T05:02:15;18.30;;;8.33;;
30247;SDS011;17063;50.892;4.702;2022-12-07T05:04:41;14.47;;;8.17;;
30247;SDS011;17063;50.892;4.702;2022-12-07T05:07:08;13.80;;;7.93;;
30247;SDS011;17063;50.892;4.702;2022-12-07T05:09:35;16.30;;;7.50;;
30247;SDS011;17063;50.892;4.702;2022-12-07T05:12:02;13.47;;;7.50;;
30247;SDS011;17063;50.892;4.702;2022-12-07T05:14:29;11.77;;;7.00;;
30247;SDS011;17063;50.892;4.702;2022-12-07T05:16:55;14.67;;;7.50;;
30247;SDS011;17063;50.892;4.702;2022-12-07T05:19:22;20.60;;;7.10;;
30247;SDS011;17063;50.892;4.702;2022-12-07T05:21:49;13.53;;;7.27;;
30247;SDS011;17063;50.892;4.702;2022-12-07T05:24:16;13.63;;;7.23;;
30247;SDS011;17063;50.892;4.702;2022-12-07T05:26:44;13.50;;;7.70;;
30247;SDS011;17063;50.892;4.702;2022-12-07T05:29:12;12.37;;;8.60;;
30247;SDS011;17063;50.892;4.702;2022-12-07T05:31:40;12.60;;;7.33;;
30247;SDS011;17063;50.892;4.702;2022-12-07T05:34:07;11.23;;;7.30;;
30247;SDS011;17063;50.892;4.702;2022-12-07T05:36:34;14.17;;;8.17;;
30247;SDS011;17063;50.892;4.702;2022-12-07T05:39:01;10.63;;;6.93;;
30247;SDS011;17063;50.892;4.702;2022-12-07T05:41:28;10.30;;;6.50;;
30247;SDS011;17063;50.892;4.702;2022-12-07T05:44:13;14.03;;;7.20;;
30247;SDS011;17063;50.892;4.702;2022-12-07T05:46:40;14.57;;;6.90;;
30247;SDS011;17063;50.892;4.702;2022-12-07T05:49:06;21.13;;;7.70;;
30247;SDS011;17063;50.892;4.702;2022-12-07T05:51:33;13.27;;;7.00;;
30247;SDS011;17063;50.892;4.702;2022-12-07T05:54:00;13.40;;;6.40;;
30247;SDS011;17063;50.892;4.702;2022-12-07T05:56:27;10.77;;;6.63;;
30247;SDS011;17063;50.892;4.702;2022-12-07T05:58:53;13.20;;;6.80;;
30247;SDS011;17063;50.892;4.702;2022-12-07T06:01:39;10.80;;;7.10;;
30247;SDS011;17063;50.892;4.702;2022-12-07T06:04:06;11.47;;;6.37;;
30247;SDS011;17063;50.892;4.702;2022-12-07T06:06:33;10.63;;;6.30;;
30247;SDS011;17063;50.892;4.702;2022-12-07T06:09:00;15.37;;;7.47;;
30247;SDS011;17063;50.892;4.702;2022-12-07T06:11:26;13.50;;;7.37;;
30247;SDS011;17063;50.892;4.702;2022-12-07T06:14:12;11.47;;;6.20;;
30247;SDS011;17063;50.892;4.702;2022-12-07T06:16:39;11.40;;;6.77;;
30247;SDS011;17063;50.892;4.702;2022-12-07T06:19:06;12.73;;;6.27;;
30247;SDS011;17063;50.892;4.702;2022-12-07T06:21:32;15.77;;;6.47;;
30247;SDS011;17063;50.892;4.702;2022-12-07T06:23:59;11.47;;;6.30;;
30247;SDS011;17063;50.892;4.702;2022-12-07T06:26:26;10.90;;;6.80;;
30247;SDS011;17063;50.892;4.702;2022-12-07T06:28:53;11.63;;;6.17;;
30247;SDS011;17063;50.892;4.702;2022-12-07T06:31:20;9.57;;;5.97;;
30247;SDS011;17063;50.892;4.702;2022-12-07T06:33:47;13.13;;;6.23;;
30247;SDS011;17063;50.892;4.702;2022-12-07T06:36:14;14.00;;;6.67;;
30247;SDS011;17063;50.892;4.702;2022-12-07T06:38:40;11.00;;;6.33;;
30247;SDS011;17063;50.892;4.702;2022-12-07T06:41:07;9.37;;;6.07;;
30247;SDS011;17063;50.892;4.702;2022-12-07T06:43:34;13.70;;;6.30;;
30247;SDS011;17063;50.892;4.702;2022-12-07T06:46:01;15.20;;;6.90;;
30247;SDS011;17063;50.892;4.702;2022-12-07T06:48:30;16.40;;;7.03;;
30247;SDS011;17063;50.892;4.702;2022-12-07T06:50:59;14.23;;;6.33;;
30247;SDS011;17063;50.892;4.702;2022-12-07T06:53:26;10.60;;;6.03;;
30247;SDS011;17063;50.892;4.702;2022-12-07T06:55:53;16.67;;;7.03;;
30247;SDS011;17063;50.892;4.702;2022-12-07T06:58:20;10.63;;;6.03;;
30247;SDS011;17063;50.892;4.702;2022-12-07T07:00:48;14.20;;;6.97;;
30247;SDS011;17063;50.892;4.702;2022-12-07T07:03:16;12.40;;;6.23;;
30247;SDS011;17063;50.892;4.702;2022-12-07T07:05:43;12.00;;;6.30;;
30247;SDS011;17063;50.892;4.702;2022-12-07T07:08:11;12.83;;;6.30;;
30247;SDS011;17063;50.892;4.702;2022-12-07T07:10:48;15.63;;;6.27;;
30247;SDS011;17063;50.892;4.702;2022-12-07T07:13:15;22.40;;;6.90;;
30247;SDS011;17063;50.892;4.702;2022-12-07T07:15:41;28.20;;;7.87;;
30247;SDS011;17063;50.892;4.702;2022-12-07T07:18:08;18.27;;;7.20;;
30247;SDS011;17063;50.892;4.702;2022-12-07T07:20:36;20.37;;;7.33;;
30247;SDS011;17063;50.892;4.702;2022-12-07T07:23:03;17.83;;;7.20;;
30247;SDS011;17063;50.892;4.702;2022-12-07T07:25:30;11.93;;;6.63;;
30247;SDS011;17063;50.892;4.702;2022-12-07T07:27:57;15.33;;;6.73;;
30247;SDS011;17063;50.892;4.702;2022-12-07T07:30:25;14.67;;;5.97;;
30247;SDS011;17063;50.892;4.702;2022-12-07T07:32:59;8.43;;;6.17;;
30247;SDS011;17063;50.892;4.702;2022-12-07T07:35:28;15.03;;;5.70;;
30247;SDS011;17063;50.892;4.702;2022-12-07T07:37:56;8.10;;;4.90;;
30247;SDS011;17063;50.892;4.702;2022-12-07T07:40:23;8.70;;;5.20;;
30247;SDS011;17063;50.892;4.702;2022-12-07T07:42:51;9.90;;;5.53;;
30247;SDS011;17063;50.892;4.702;2022-12-07T07:45:19;9.33;;;5.10;;
30247;SDS011;17063;50.892;4.702;2022-12-07T07:47:47;14.33;;;5.33;;
30247;SDS011;17063;50.892;4.702;2022-12-07T07:50:14;7.43;;;5.20;;
30247;SDS011;17063;50.892;4.702;2022-12-07T07:52:42;12.70;;;4.80;;
30247;SDS011;17063;50.892;4.702;2022-12-07T07:55:09;22.97;;;5.13;;
30247;SDS011;17063;50.892;4.702;2022-12-07T07:57:37;9.67;;;4.67;;
30247;SDS011;17063;50.892;4.702;2022-12-07T08:00:06;8.17;;;4.70;;
30247;SDS011;17063;50.892;4.702;2022-12-07T08:02:38;7.60;;;4.83;;
30247;SDS011;17063;50.892;4.702;2022-12-07T08:05:05;9.77;;;5.03;;
30247;SDS011;17063;50.892;4.702;2022-12-07T08:07:35;9.87;;;5.57;;
30247;SDS011;17063;50.892;4.702;2022-12-07T08:10:02;9.27;;;5.83;;
30247;SDS011;17063;50.892;4.702;2022-12-07T08:12:30;8.57;;;5.37;;
30247;SDS011;17063;50.892;4.702;2022-12-07T08:14:57;14.37;;;5.90;;
30247;SDS011;17063;50.892;4.702;2022-12-07T08:17:24;13.47;;;5.70;;
30247;SDS011;17063;50.892;4.702;2022-12-07T08:19:50;13.80;;;5.30;;
30247;SDS011;17063;50.892;4.702;2022-12-07T08:22:17;9.83;;;4.60;;
30247;SDS011;17063;50.892;4.702;2022-12-07T08:24:46;18.03;;;4.30;;
30247;SDS011;17063;50.892;4.702;2022-12-07T08:27:12;8.50;;;4.20;;
30247;SDS011;17063;50.892;4.702;2022-12-07T08:29:39;10.13;;;4.27;;
30247;SDS011;17063;50.892;4.702;2022-12-07T08:32:06;8.63;;;3.73;;
30247;SDS011;17063;50.892;4.702;2022-12-07T08:34:35;9.13;;;4.13;;
30247;SDS011;17063;50.892;4.702;2022-12-07T08:37:03;12.10;;;4.73;;
30247;SDS011;17063;50.892;4.702;2022-12-07T08:39:30;9.83;;;4.00;;
30247;SDS011;17063;50.892;4.702;2022-12-07T08:41:58;13.20;;;4.90;;
30247;SDS011;17063;50.892;4.702;2022-12-07T08:44:25;16.23;;;4.73;;
30247;SDS011;17063;50.892;4.702;2022-12-07T08:46:59;14.70;;;4.30;;
30247;SDS011;17063;50.892;4.702;2022-12-07T08:49:42;13.80;;;4.97;;
30247;SDS011;17063;50.892;4.702;2022-12-07T08:52:11;8.27;;;4.87;;
30247;SDS011;17063;50.892;4.702;2022-12-07T08:54:38;8.33;;;4.40;;
30247;SDS011;17063;50.892;4.702;2022-12-07T08:57:06;11.53;;;4.40;;
30247;SDS011;17063;50.892;4.702;2022-12-07T08:59:33;10.73;;;4.40;;
30247;SDS011;17063;50.892;4.702;2022-12-07T09:02:01;17.37;;;4.67;;
30247;SDS011;17063;50.892;4.702;2022-12-07T09:04:30;12.87;;;5.57;;
30247;SDS011;17063;50.892;4.702;2022-12-07T09:06:58;10.57;;;5.73;;
30247;SDS011;17063;50.892;4.702;2022-12-07T09:09:25;14.47;;;5.20;;
30247;SDS011;17063;50.892;4.702;2022-12-07T09:11:52;13.90;;;5.47;;
30247;SDS011;17063;50.892;4.702;2022-12-07T09:14:19;14.87;;;6.03;;
30247;SDS011;17063;50.892;4.702;2022-12-07T09:16:49;11.83;;;5.10;;
30247;SDS011;17063;50.892;4.702;2022-12-07T09:19:16;12.73;;;4.57;;
30247;SDS011;17063;50.892;4.702;2022-12-07T09:21:43;12.37;;;4.43;;
30247;SDS011;17063;50.892;4.702;2022-12-07T09:24:11;8.60;;;3.97;;
30247;SDS011;17063;50.892;4.702;2022-12-07T09:26:38;11.23;;;4.37;;
30247;SDS011;17063;50.892;4.702;2022-12-07T09:29:06;7.97;;;3.80;;
30247;SDS011;17063;50.892;4.702;2022-12-07T09:31:35;14.60;;;4.50;;
30247;SDS011;17063;50.892;4.702;2022-12-07T09:34:03;7.20;;;4.10;;
30247;SDS011;17063;50.892;4.702;2022-12-07T09:36:32;12.10;;;4.83;;
30247;SDS011;17063;50.892;4.702;2022-12-07T09:38:59;9.73;;;4.53;;
30247;SDS011;17063;50.892;4.702;2022-12-07T09:41:26;9.63;;;4.30;;
30247;SDS011;17063;50.892;4.702;2022-12-07T09:43:56;11.70;;;3.97;;
30247;SDS011;17063;50.892;4.702;2022-12-07T09:46:36;10.90;;;3.90;;
30247;SDS011;17063;50.892;4.702;2022-12-07T09:49:05;11.17;;;4.90;;
30247;SDS011;17063;50.892;4.702;2022-12-07T09:51:32;12.83;;;4.60;;
30247;SDS011;17063;50.892;4.702;2022-12-07T09:53:59;14.57;;;4.30;;
30247;SDS011;17063;50.892;4.702;2022-12-07T09:56:28;8.37;;;4.40;;
30247;SDS011;17063;50.892;4.702;2022-12-07T09:59:01;11.00;;;4.13;;
30247;SDS011;17063;50.892;4.702;2022-12-07T10:01:32;6.47;;;3.50;;
30247;SDS011;17063;50.892;4.702;2022-12-07T10:06:37;9.50;;;3.63;;
30247;SDS011;17063;50.892;4.702;2022-12-07T10:09:11;8.27;;;3.33;;
30247;SDS011;17063;50.892;4.702;2022-12-07T10:14:32;9.60;;;3.70;;
30247;SDS011;17063;50.892;4.702;2022-12-07T10:17:40;12.20;;;4.10;;
30247;SDS011;17063;50.892;4.702;2022-12-07T10:25:27;9.87;;;4.00;;
30247;SDS011;17063;50.892;4.702;2022-12-07T10:28:00;12.27;;;4.30;;
30247;SDS011;17063;50.892;4.702;2022-12-07T10:38:46;14.57;;;3.57;;
30247;SDS011;17063;50.892;4.702;2022-12-07T10:41:15;8.43;;;3.43;;
30247;SDS011;17063;50.892;4.702;2022-12-07T10:43:50;10.80;;;3.53;;
30247;SDS011;17063;50.892;4.702;2022-12-07T10:54:36;6.97;;;3.10;;
30247;SDS011;17063;50.892;4.702;2022-12-07T11:05:16;7.20;;;2.77;;
30247;SDS011;17063;50.892;4.702;2022-12-07T11:13:37;6.90;;;3.07;;
30247;SDS011;17063;50.892;4.702;2022-12-07T11:16:16;6.27;;;3.27;;
30247;SDS011;17063;50.892;4.702;2022-12-07T11:24:13;13.07;;;4.80;;
30247;SDS011;17063;50.892;4.702;2022-12-07T11:34:41;13.97;;;4.50;;
30247;SDS011;17063;50.892;4.702;2022-12-07T11:37:16;13.90;;;4.63;;
30247;SDS011;17063;50.892;4.702;2022-12-07T11:39:55;9.90;;;4.43;;
30247;SDS011;17063;50.892;4.702;2022-12-07T11:42:29;11.77;;;3.87;;
30247;SDS011;17063;50.892;4.702;2022-12-07T11:45:02;11.47;;;4.07;;
30247;SDS011;17063;50.892;4.702;2022-12-07T11:47:47;12.80;;;4.20;;
30247;SDS011;17063;50.892;4.702;2022-12-07T11:55:41;7.20;;;3.63;;
30247;SDS011;17063;50.892;4.702;2022-12-07T11:58:48;7.47;;;3.47;;
30247;SDS011;17063;50.892;4.702;2022-12-07T12:03:50;8.97;;;3.50;;
30247;SDS011;17063;50.892;4.702;2022-12-07T12:06:19;8.10;;;3.43;;
30247;SDS011;17063;50.892;4.702;2022-12-07T12:08:50;9.43;;;4.33;;
30247;SDS011;17063;50.892;4.702;2022-12-07T12:14:50;7.53;;;3.67;;
30247;SDS011;17063;50.892;4.702;2022-12-07T12:17:37;8.70;;;3.73;;
30247;SDS011;17063;50.892;4.702;2022-12-07T12:23:34;10.63;;;4.30;;
30247;SDS011;17063;50.892;4.702;2022-12-07T12:26:02;13.23;;;4.60;;
30247;SDS011;17063;50.892;4.702;2022-12-07T12:31:15;11.30;;;3.87;;
30247;SDS011;17063;50.892;4.702;2022-12-07T12:33:51;9.00;;;3.80;;
30247;SDS011;17063;50.892;4.702;2022-12-07T12:36:23;7.27;;;3.33;;
30247;SDS011;17063;50.892;4.702;2022-12-07T12:39:15;8.47;;;3.30;;
30247;SDS011;17063;50.892;4.702;2022-12-07T12:56:54;5.53;;;3.07;;
30247;SDS011;17063;50.892;4.702;2022-12-07T13:04:37;9.03;;;3.23;;
30247;SDS011;17063;50.892;4.702;2022-12-07T13:07:10;13.03;;;3.23;;
30247;SDS011;17063;50.892;4.702;2022-12-07T13:09:38;10.87;;;3.13;;
30247;SDS011;17063;50.892;4.702;2022-12-07T13:12:13;5.50;;;2.87;;
30247;SDS011;17063;50.892;4.702;2022-12-07T13:20:06;6.60;;;2.87;;
30247;SDS011;17063;50.892;4.702;2022-12-07T13:22:43;7.57;;;3.00;;
30247;SDS011;17063;50.892;4.702;2022-12-07T13:25:58;8.87;;;2.77;;
30247;SDS011;17063;50.892;4.702;2022-12-07T13:33:48;8.33;;;2.90;;
30247;SDS011;17063;50.892;4.702;2022-12-07T13:36:21;6.60;;;2.57;;
30247;SDS011;17063;50.892;4.702;2022-12-07T13:38:52;4.23;;;2.40;;
30247;SDS011;17063;50.892;4.702;2022-12-07T13:41:24;3.57;;;1.80;;
30247;SDS011;17063;50.892;4.702;2022-12-07T13:49:30;5.83;;;2.50;;
30247;SDS011;17063;50.892;4.702;2022-12-07T13:57:22;7.90;;;3.33;;
30247;SDS011;17063;50.892;4.702;2022-12-07T13:59:49;5.50;;;2.60;;
30247;SDS011;17063;50.892;4.702;2022-12-07T14:02:26;10.53;;;2.47;;
30247;SDS011;17063;50.892;4.702;2022-12-07T14:08:00;5.73;;;2.13;;
30247;SDS011;17063;50.892;4.702;2022-12-07T14:14:10;27.20;;;6.90;;
30247;SDS011;17063;50.892;4.702;2022-12-07T14:16:24;7.63;;;2.43;;
30247;SDS011;17063;50.892;4.702;2022-12-07T14:18:59;6.00;;;1.90;;
30247;SDS011;17063;50.892;4.702;2022-12-07T14:21:28;5.83;;;1.97;;
30247;SDS011;17063;50.892;4.702;2022-12-07T14:24:15;6.40;;;2.87;;
30247;SDS011;17063;50.892;4.702;2022-12-07T14:26:47;7.77;;;1.93;;
30247;SDS011;17063;50.892;4.702;2022-12-07T14:31:57;7.33;;;2.00;;
30247;SDS011;17063;50.892;4.702;2022-12-07T14:34:57;4.30;;;1.60;;
30247;SDS011;17063;50.892;4.702;2022-12-07T14:37:26;4.73;;;1.80;;
30247;SDS011;17063;50.892;4.702;2022-12-07T14:39:54;5.83;;;1.87;;
30247;SDS011;17063;50.892;4.702;2022-12-07T14:42:21;6.47;;;2.00;;
30247;SDS011;17063;50.892;4.702;2022-12-07T14:44:50;3.53;;;2.10;;
30247;SDS011;17063;50.892;4.702;2022-12-07T14:47:16;4.33;;;2.50;;
30247;SDS011;17063;50.892;4.702;2022-12-07T14:50:03;7.43;;;2.47;;
30247;SDS011;17063;50.892;4.702;2022-12-07T14:52:32;6.03;;;2.90;;
30247;SDS011;17063;50.892;4.702;2022-12-07T14:55:23;4.00;;;3.20;;
30247;SDS011;17063;50.892;4.702;2022-12-07T14:57:50;19.63;;;5.10;;
30247;SDS011;17063;50.892;4.702;2022-12-07T15:00:18;20.67;;;5.27;;
30247;SDS011;17063;50.892;4.702;2022-12-07T15:02:46;40.07;;;7.83;;
30247;SDS011;17063;50.892;4.702;2022-12-07T15:05:13;13.17;;;3.80;;
30247;SDS011;17063;50.892;4.702;2022-12-07T15:07:42;18.37;;;4.47;;
30247;SDS011;17063;50.892;4.702;2022-12-07T15:10:24;9.43;;;2.83;;
30247;SDS011;17063;50.892;4.702;2022-12-07T15:12:56;8.13;;;3.20;;
30247;SDS011;17063;50.892;4.702;2022-12-07T15:15:44;4.97;;;2.20;;
30247;SDS011;17063;50.892;4.702;2022-12-07T15:18:11;5.00;;;2.23;;
30247;SDS011;17063;50.892;4.702;2022-12-07T15:20:38;3.03;;;2.03;;
30247;SDS011;17063;50.892;4.702;2022-12-07T15:23:05;2.30;;;1.97;;
30247;SDS011;17063;50.892;4.702;2022-12-07T15:25:32;2.30;;;2.10;;
30247;SDS011;17063;50.892;4.702;2022-12-07T15:27:59;6.17;;;2.07;;
30247;SDS011;17063;50.892;4.702;2022-12-07T15:30:26;6.80;;;2.43;;
30247;SDS011;17063;50.892;4.702;2022-12-07T15:32:53;7.60;;;2.43;;
30247;SDS011;17063;50.892;4.702;2022-12-07T15:35:21;2.70;;;2.47;;
30247;SDS011;17063;50.892;4.702;2022-12-07T15:37:47;5.07;;;2.53;;
30247;SDS011;17063;50.892;4.702;2022-12-07T15:40:14;5.50;;;2.17;;
30247;SDS011;17063;50.892;4.702;2022-12-07T15:42:41;5.97;;;2.27;;
30247;SDS011;17063;50.892;4.702;2022-12-07T15:45:09;5.33;;;2.50;;
30247;SDS011;17063;50.892;4.702;2022-12-07T15:47:37;3.70;;;2.40;;
30247;SDS011;17063;50.892;4.702;2022-12-07T15:50:26;6.03;;;2.50;;
30247;SDS011;17063;50.892;4.702;2022-12-07T15:52:53;4.27;;;2.20;;
30247;SDS011;17063;50.892;4.702;2022-12-07T15:55:20;3.73;;;2.40;;
30247;SDS011;17063;50.892;4.702;2022-12-07T15:57:47;5.63;;;2.97;;
30247;SDS011;17063;50.892;4.702;2022-12-07T16:00:15;6.57;;;2.80;;
30247;SDS011;17063;50.892;4.702;2022-12-07T16:02:43;4.80;;;2.77;;
30247;SDS011;17063;50.892;4.702;2022-12-07T16:05:10;3.63;;;2.63;;
30247;SDS011;17063;50.892;4.702;2022-12-07T16:07:37;7.27;;;2.93;;
30247;SDS011;17063;50.892;4.702;2022-12-07T16:10:04;5.43;;;2.80;;
30247;SDS011;17063;50.892;4.702;2022-12-07T16:12:34;7.17;;;3.17;;
30247;SDS011;17063;50.892;4.702;2022-12-07T16:15:01;7.23;;;3.10;;
30247;SDS011;17063;50.892;4.702;2022-12-07T16:17:29;4.83;;;2.77;;
30247;SDS011;17063;50.892;4.702;2022-12-07T16:19:55;6.17;;;2.90;;
30247;SDS011;17063;50.892;4.702;2022-12-07T16:22:23;5.83;;;3.37;;
30247;SDS011;17063;50.892;4.702;2022-12-07T16:24:51;4.30;;;2.87;;
30247;SDS011;17063;50.892;4.702;2022-12-07T16:27:18;6.83;;;3.73;;
30247;SDS011;17063;50.892;4.702;2022-12-07T16:29:45;7.97;;;2.93;;
30247;SDS011;17063;50.892;4.702;2022-12-07T16:32:11;7.57;;;3.17;;
30247;SDS011;17063;50.892;4.702;2022-12-07T16:34:39;6.80;;;3.30;;
30247;SDS011;17063;50.892;4.702;2022-12-07T16:37:06;7.57;;;3.20;;
30247;SDS011;17063;50.892;4.702;2022-12-07T16:39:33;6.53;;;3.13;;
30247;SDS011;17063;50.892;4.702;2022-12-07T16:42:00;6.00;;;3.47;;
30247;SDS011;17063;50.892;4.702;2022-12-07T16:44:27;7.90;;;3.30;;
30247;SDS011;17063;50.892;4.702;2022-12-07T16:46:55;7.27;;;3.80;;
30247;SDS011;17063;50.892;4.702;2022-12-07T16:49:22;7.43;;;3.40;;
30247;SDS011;17063;50.892;4.702;2022-12-07T16:51:50;7.83;;;3.77;;
30247;SDS011;17063;50.892;4.702;2022-12-07T16:54:38;6.03;;;3.30;;
30247;SDS011;17063;50.892;4.702;2022-12-07T16:57:05;7.80;;;3.60;;
30247;SDS011;17063;50.892;4.702;2022-12-07T16:59:32;10.37;;;3.73;;
30247;SDS011;17063;50.892;4.702;2022-12-07T17:01:58;9.60;;;2.93;;
30247;SDS011;17063;50.892;4.702;2022-12-07T17:04:25;6.10;;;3.37;;
30247;SDS011;17063;50.892;4.702;2022-12-07T17:06:53;8.33;;;3.20;;
30247;SDS011;17063;50.892;4.702;2022-12-07T17:09:20;5.67;;;2.80;;
30247;SDS011;17063;50.892;4.702;2022-12-07T17:11:47;4.80;;;3.13;;
30247;SDS011;17063;50.892;4.702;2022-12-07T17:14:14;5.90;;;2.53;;
30247;SDS011;17063;50.892;4.702;2022-12-07T17:16:59;7.87;;;3.57;;
30247;SDS011;17063;50.892;4.702;2022-12-07T17:19:26;6.37;;;2.83;;
30247;SDS011;17063;50.892;4.702;2022-12-07T17:21:53;11.10;;;3.23;;
30247;SDS011;17063;50.892;4.702;2022-12-07T17:24:20;6.50;;;2.80;;
30247;SDS011;17063;50.892;4.702;2022-12-07T17:26:46;5.17;;;2.80;;
30247;SDS011;17063;50.892;4.702;2022-12-07T17:29:14;3.23;;;1.90;;
30247;SDS011;17063;50.892;4.702;2022-12-07T17:31:42;6.77;;;2.37;;
30247;SDS011;17063;50.892;4.702;2022-12-07T17:34:16;6.97;;;2.77;;
30247;SDS011;17063;50.892;4.702;2022-12-07T17:36:44;6.13;;;2.43;;
30247;SDS011;17063;50.892;4.702;2022-12-07T17:39:13;4.20;;;2.73;;